Christian Reinauer — WDA6472 — position and weather

sailwx.info

Track history (hours):
 
Tides and Currents Weather Stations Pressure Air Temp Water Temp Dewpoint Dewpoint Depression Visibility Wind Speed Wind Dir Waves Ship Positions

Christian Reinauer

Owner: REINAUER TRANSPORTATION CO LLC, STATEN ISLAND, NY. More information available from US FCC via Universal Licensing System and Coast Guard Vessel Documentation Center.

Last reported at 2017-May-23 08:28 UTC. Time now 2017-May-25 03:08 UTC.
Position N 38°43' W 074°34'.

Length 170 m; draft 8.4 m.

Type: . MMSI: 366832740.

Date/timePositionNaut miles runAvg speedWind from/ knotsBaromVisibWave heightAir tempDewpointWater temp
2017-May-23 08:28N 38°43' W 074°34'911.7
2017-May-23 07:45N 38°52' W 074°31'311.9
2017-May-23 07:30N 38°54' W 074°30'911.8
2017-May-23 06:46N 39°02' W 074°24'311.8
2017-May-23 06:29N 39°04' W 074°21'611.9
2017-May-23 05:59N 39°09' W 074°16'1311.9
2017-May-23 04:52N 39°20' W 074°08'411.9
2017-May-23 04:30N 39°24' W 074°06'612.0
2017-May-23 03:58N 39°31' W 074°03'612.0
2017-May-23 03:29N 39°36' W 074°01'612.1
2017-May-23 03:01N 39°42' W 073°58'611.6
2017-May-23 02:30N 39°47' W 073°56'611.8
2017-May-23 01:59N 39°53' W 073°55'611.8
2017-May-23 01:29N 39°59' W 073°55'2711.5
2017-May-22 23:09N 40°26' W 073°55'411.4
2017-May-22 22:46N 40°29' W 073°59'311.0
2017-May-22 22:30N 40°29' W 074°03'10 0.6
2017-May-22 05:24N 40°33' W 074°15'3 8.4
2017-May-22 05:00N 40°36' W 074°12'4 7.3
2017-May-22 04:30N 40°39' W 074°09'1 1.5
2017-May-22 04:00N 40°38' W 074°08'1 2.0
2017-May-22 03:30N 40°39' W 074°07'0 0.0
2017-May-22 03:00N 40°39' W 074°07'0 0.0
2017-May-22 02:30N 40°39' W 074°07'0 0.0
2017-May-22 02:00N 40°39' W 074°07'0 0.0
2017-May-22 01:30N 40°39' W 074°07'0 0.0
2017-May-22 00:56N 40°39' W 074°07'0 0.0
2017-May-22 00:29N 40°39' W 074°07'0 0.0
2017-May-21 23:59N 40°39' W 074°07'0 0.0
2017-May-21 23:29N 40°39' W 074°07'0 0.0
2017-May-21 22:59N 40°39' W 074°07'0 0.0
2017-May-21 22:30N 40°39' W 074°07'2 4.5
2017-May-21 22:00N 40°39' W 074°10'4 8.4
2017-May-21 21:28N 40°35' W 074°13'3 3.5
2017-May-21 20:35N 40°33' W 074°15'0 0.0
2017-May-21 20:27N 40°33' W 074°15'4 1.8
2017-May-21 18:19N 40°30' W 074°11'1 4.1
2017-May-21 18:00N 40°30' W 074°09'2 4.6
2017-May-21 17:29N 40°29' W 074°06'3 5.4
2017-May-21 17:00N 40°29' W 074°03'3 6.9
2017-May-21 16:30N 40°32' W 074°02'4 7.5
2017-May-21 16:00N 40°36' W 074°03'2 4.6
2017-May-21 15:30N 40°38' W 074°03'1 1.8
2017-May-21 15:00N 40°39' W 074°02'4 7.2
2017-May-21 14:31N 40°42' W 074°00'1110.8
2017-May-21 13:30N 40°48' W 073°48'611.1
2017-May-21 13:00N 40°53' W 073°44'3 1.7
2017-May-21 11:29N 40°54' W 073°40'0 0.0
2017-May-21 11:00N 40°54' W 073°41'2 3.4
2017-May-21 10:26N 40°55' W 073°39'512.0
2017-May-21 10:00N 40°57' W 073°33'2812.1
2017-May-21 07:41N 41°09' W 072°59'39 1.0
2017-May-19 15:17N 40°52' W 073°45'311.6
2017-May-19 15:00N 40°49' W 073°47'8 8.3
2017-May-19 14:00N 40°46' W 073°57'4 7.5
2017-May-19 13:30N 40°43' W 073°59'4 7.9
2017-May-19 13:00N 40°40' W 074°02'1 2.7
2017-May-19 12:30N 40°39' W 074°03'0 0.2
2017-May-19 12:00N 40°39' W 074°03'0 0.7
2017-May-19 11:30N 40°38' W 074°03'0 0.8
2017-May-19 11:00N 40°38' W 074°03'0 0.1
2017-May-19 10:30N 40°38' W 074°03'0 0.5
2017-May-19 10:00N 40°38' W 074°03'2 4.2
2017-May-19 09:30N 40°39' W 074°05'4 7.4
2017-May-19 09:00N 40°39' W 074°10'3 5.3
2017-May-19 08:30N 40°37' W 074°12'3 6.2
2017-May-19 08:00N 40°34' W 074°13'2 0.2
2017-May-18 23:07N 40°33' W 074°15'1 6.3
2017-May-18 22:59N 40°33' W 074°15'4 8.6
2017-May-18 22:29N 40°37' W 074°12'4 7.5
2017-May-18 22:00N 40°38' W 074°08'0 0.1
2017-May-18 21:30N 40°38' W 074°08'0 0.0
2017-May-18 21:00N 40°38' W 074°08'0 0.0
2017-May-18 20:30N 40°38' W 074°08'0 0.0
2017-May-18 20:00N 40°38' W 074°08'0 0.0
2017-May-18 19:30N 40°38' W 074°08'0 0.0
2017-May-18 19:00N 40°38' W 074°08'0 0.0
2017-May-18 18:30N 40°38' W 074°08'0 0.0
2017-May-18 17:59N 40°38' W 074°08'0 0.0
2017-May-18 17:29N 40°38' W 074°08'0 0.0
2017-May-18 17:00N 40°38' W 074°08'0 0.0
2017-May-18 16:30N 40°38' W 074°08'0 0.4
2017-May-18 16:01N 40°39' W 074°08'4 7.0
2017-May-18 15:30N 40°37' W 074°12'4 8.3
2017-May-18 14:59N 40°33' W 074°14'1 0.3
2017-May-18 11:13N 40°33' W 074°15'0 0.0
2017-May-18 10:58N 40°33' W 074°15'0 0.0
2017-May-18 10:29N 40°33' W 074°15'0 0.0
2017-May-18 09:58N 40°33' W 074°15'0 0.0
2017-May-18 09:29N 40°33' W 074°15'0 0.0
2017-May-18 09:00N 40°33' W 074°15'0 0.0
2017-May-18 08:28N 40°33' W 074°15'0 0.0
2017-May-18 07:50N 40°33' W 074°15'0 0.0
2017-May-18 07:21N 40°33' W 074°15'0 0.0
2017-May-18 04:56N 40°33' W 074°15'0 0.0
2017-May-17 23:28N 40°33' W 074°15'0 0.0
2017-May-17 22:59N 40°33' W 074°15'0 0.0
2017-May-17 22:30N 40°33' W 074°15'0 0.0
2017-May-17 21:56N 40°33' W 074°15'0 0.0
2017-May-17 20:49N 40°33' W 074°15'4 2.0
2017-May-17 18:38N 40°30' W 074°10'1 5.2
2017-May-17 18:30N 40°30' W 074°09'4 6.3
2017-May-17 17:52N 40°29' W 074°04'2 4.5
2017-May-17 17:30N 40°30' W 074°03'4 7.3
2017-May-17 17:00N 40°34' W 074°02'2 4.1
2017-May-17 16:26N 40°36' W 074°02'0 0.0
2017-May-17 15:59N 40°36' W 074°02'0 0.1
2017-May-17 15:29N 40°36' W 074°02'0 0.1
2017-May-17 14:59N 40°36' W 074°01'0 0.0
2017-May-17 14:29N 40°36' W 074°01'0 0.0
2017-May-17 13:29N 40°36' W 074°02'0 0.1
2017-May-17 12:59N 40°36' W 074°01'0 0.0
2017-May-17 12:23N 40°36' W 074°01'0 0.0
2017-May-17 11:59N 40°36' W 074°01'0 0.0
2017-May-17 11:29N 40°36' W 074°01'0 0.1
2017-May-17 10:59N 40°36' W 074°01'0 0.1
2017-May-17 10:29N 40°36' W 074°01'0 0.1
2017-May-17 09:59N 40°36' W 074°01'0 0.1
2017-May-17 09:29N 40°36' W 074°01'0 0.0
2017-May-17 08:59N 40°36' W 074°01'0 0.0
2017-May-17 08:29N 40°36' W 074°01'0 0.0
2017-May-17 07:59N 40°36' W 074°01'0 0.2
2017-May-17 07:29N 40°36' W 074°01'0 0.3
2017-May-17 06:56N 40°36' W 074°02'0 0.0
2017-May-17 06:29N 40°36' W 074°02'0 0.0
2017-May-17 05:59N 40°36' W 074°02'0 0.0
2017-May-17 05:29N 40°36' W 074°02'0 0.1
2017-May-17 04:59N 40°36' W 074°02'0 0.1
2017-May-17 04:29N 40°36' W 074°02'0 0.0
2017-May-17 03:59N 40°36' W 074°02'0 0.0
2017-May-17 03:29N 40°36' W 074°02'0 0.1
2017-May-17 02:59N 40°36' W 074°02'0 0.0
2017-May-17 02:29N 40°36' W 074°02'0 0.1
2017-May-17 01:59N 40°36' W 074°02'0 0.1
2017-May-17 01:29N 40°36' W 074°02'0 0.0
2017-May-17 00:59N 40°36' W 074°02'0 0.1
2017-May-17 00:26N 40°36' W 074°02'0 0.1
2017-May-16 23:59N 40°36' W 074°01'0 0.0
2017-May-16 23:29N 40°36' W 074°01'0 0.0
2017-May-16 22:59N 40°36' W 074°01'0 0.1
2017-May-16 22:22N 40°36' W 074°01'0 0.1
2017-May-16 21:55N 40°36' W 074°01'0 0.0
2017-May-16 21:28N 40°36' W 074°01'0 0.1
2017-May-16 20:58N 40°36' W 074°01'0 0.1
2017-May-16 20:28N 40°36' W 074°01'0 0.0
2017-May-16 19:58N 40°36' W 074°01'0 0.1
2017-May-16 19:28N 40°36' W 074°01'0 0.1
2017-May-16 18:58N 40°36' W 074°01'0 0.2
2017-May-16 18:25N 40°36' W 074°01'0 0.1
2017-May-16 17:46N 40°36' W 074°01'0 0.2
2017-May-16 17:25N 40°36' W 074°01'0 0.3
2017-May-16 16:58N 40°36' W 074°01'0 0.1
2017-May-16 16:28N 40°36' W 074°01'0 0.0
2017-May-16 15:58N 40°36' W 074°01'0 0.0
2017-May-16 15:28N 40°36' W 074°01'0 0.0
2017-May-16 14:58N 40°36' W 074°01'0 0.4
2017-May-16 14:00N 40°36' W 074°02'4 8.1
2017-May-16 13:30N 40°32' W 074°01'612.0
2017-May-16 13:00N 40°29' W 073°54'3511.1
2017-May-16 09:52N 39°54' W 073°57'410.8
2017-May-16 09:29N 39°50' W 073°57'510.9
2017-May-16 08:59N 39°44' W 073°58'611.2
2017-May-16 08:29N 39°39' W 074°01'611.4
2017-May-16 08:00N 39°34' W 074°04'611.2
2017-May-16 07:30N 39°29' W 074°07'611.1
2017-May-16 06:58N 39°24' W 074°10'26110.7
2017-May-15 06:38N 35°08' W 075°16'411.6
2017-May-15 06:15N 35°05' W 075°20'  
Track history (hours):
 
Tides and Currents Weather Stations Pressure Air Temp Water Temp Dewpoint Dewpoint Depression Visibility Wind Speed Wind Dir Waves Ship Positions

Christian Reinauer

Owner: REINAUER TRANSPORTATION CO LLC, STATEN ISLAND, NY. More information available from US FCC via Universal Licensing System and Coast Guard Vessel Documentation Center.

Last reported at 2017-May-23 08:28 UTC. Time now 2017-May-25 03:08 UTC.
Position N 38°43' W 074°34'.

Length 170 m; draft 8.4 m.

Type: . MMSI: 366832740.

Date/timePositionNaut miles runAvg speedWind from/ knotsBaromVisibWave heightAir tempDewpointWater temp
2017-May-23 08:28N 38°43' W 074°34'911.7
2017-May-23 07:45N 38°52' W 074°31'311.9
2017-May-23 07:30N 38°54' W 074°30'911.8
2017-May-23 06:46N 39°02' W 074°24'311.8
2017-May-23 06:29N 39°04' W 074°21'611.9
2017-May-23 05:59N 39°09' W 074°16'1311.9
2017-May-23 04:52N 39°20' W 074°08'411.9
2017-May-23 04:30N 39°24' W 074°06'612.0
2017-May-23 03:58N 39°31' W 074°03'612.0
2017-May-23 03:29N 39°36' W 074°01'612.1
2017-May-23 03:01N 39°42' W 073°58'611.6
2017-May-23 02:30N 39°47' W 073°56'611.8
2017-May-23 01:59N 39°53' W 073°55'611.8
2017-May-23 01:29N 39°59' W 073°55'2711.5
2017-May-22 23:09N 40°26' W 073°55'411.4
2017-May-22 22:46N 40°29' W 073°59'311.0
2017-May-22 22:30N 40°29' W 074°03'10 0.6
2017-May-22 05:24N 40°33' W 074°15'3 8.4
2017-May-22 05:00N 40°36' W 074°12'4 7.3
2017-May-22 04:30N 40°39' W 074°09'1 1.5
2017-May-22 04:00N 40°38' W 074°08'1 2.0
2017-May-22 03:30N 40°39' W 074°07'0 0.0
2017-May-22 03:00N 40°39' W 074°07'0 0.0
2017-May-22 02:30N 40°39' W 074°07'0 0.0
2017-May-22 02:00N 40°39' W 074°07'0 0.0
2017-May-22 01:30N 40°39' W 074°07'0 0.0
2017-May-22 00:56N 40°39' W 074°07'0 0.0
2017-May-22 00:29N 40°39' W 074°07'0 0.0
2017-May-21 23:59N 40°39' W 074°07'0 0.0
2017-May-21 23:29N 40°39' W 074°07'0 0.0
2017-May-21 22:59N 40°39' W 074°07'0 0.0
2017-May-21 22:30N 40°39' W 074°07'2 4.5
2017-May-21 22:00N 40°39' W 074°10'4 8.4
2017-May-21 21:28N 40°35' W 074°13'3 3.5
2017-May-21 20:35N 40°33' W 074°15'0 0.0
2017-May-21 20:27N 40°33' W 074°15'4 1.8
2017-May-21 18:19N 40°30' W 074°11'1 4.1
2017-May-21 18:00N 40°30' W 074°09'2 4.6
2017-May-21 17:29N 40°29' W 074°06'3 5.4
2017-May-21 17:00N 40°29' W 074°03'3 6.9
2017-May-21 16:30N 40°32' W 074°02'4 7.5
2017-May-21 16:00N 40°36' W 074°03'2 4.6
2017-May-21 15:30N 40°38' W 074°03'1 1.8
2017-May-21 15:00N 40°39' W 074°02'4 7.2
2017-May-21 14:31N 40°42' W 074°00'1110.8
2017-May-21 13:30N 40°48' W 073°48'611.1
2017-May-21 13:00N 40°53' W 073°44'3 1.7
2017-May-21 11:29N 40°54' W 073°40'0 0.0
2017-May-21 11:00N 40°54' W 073°41'2 3.4
2017-May-21 10:26N 40°55' W 073°39'512.0
2017-May-21 10:00N 40°57' W 073°33'2812.1
2017-May-21 07:41N 41°09' W 072°59'39 1.0
2017-May-19 15:17N 40°52' W 073°45'311.6
2017-May-19 15:00N 40°49' W 073°47'8 8.3
2017-May-19 14:00N 40°46' W 073°57'4 7.5
2017-May-19 13:30N 40°43' W 073°59'4 7.9
2017-May-19 13:00N 40°40' W 074°02'1 2.7
2017-May-19 12:30N 40°39' W 074°03'0 0.2
2017-May-19 12:00N 40°39' W 074°03'0 0.7
2017-May-19 11:30N 40°38' W 074°03'0 0.8
2017-May-19 11:00N 40°38' W 074°03'0 0.1
2017-May-19 10:30N 40°38' W 074°03'0 0.5
2017-May-19 10:00N 40°38' W 074°03'2 4.2
2017-May-19 09:30N 40°39' W 074°05'4 7.4
2017-May-19 09:00N 40°39' W 074°10'3 5.3
2017-May-19 08:30N 40°37' W 074°12'3 6.2
2017-May-19 08:00N 40°34' W 074°13'2 0.2
2017-May-18 23:07N 40°33' W 074°15'1 6.3
2017-May-18 22:59N 40°33' W 074°15'4 8.6
2017-May-18 22:29N 40°37' W 074°12'4 7.5
2017-May-18 22:00N 40°38' W 074°08'0 0.1
2017-May-18 21:30N 40°38' W 074°08'0 0.0
2017-May-18 21:00N 40°38' W 074°08'0 0.0
2017-May-18 20:30N 40°38' W 074°08'0 0.0
2017-May-18 20:00N 40°38' W 074°08'0 0.0
2017-May-18 19:30N 40°38' W 074°08'0 0.0
2017-May-18 19:00N 40°38' W 074°08'0 0.0
2017-May-18 18:30N 40°38' W 074°08'0 0.0
2017-May-18 17:59N 40°38' W 074°08'0 0.0
2017-May-18 17:29N 40°38' W 074°08'0 0.0
2017-May-18 17:00N 40°38' W 074°08'0 0.0
2017-May-18 16:30N 40°38' W 074°08'0 0.4
2017-May-18 16:01N 40°39' W 074°08'4 7.0
2017-May-18 15:30N 40°37' W 074°12'4 8.3
2017-May-18 14:59N 40°33' W 074°14'1 0.3
2017-May-18 11:13N 40°33' W 074°15'0 0.0
2017-May-18 10:58N 40°33' W 074°15'0 0.0
2017-May-18 10:29N 40°33' W 074°15'0 0.0
2017-May-18 09:58N 40°33' W 074°15'0 0.0
2017-May-18 09:29N 40°33' W 074°15'0 0.0
2017-May-18 09:00N 40°33' W 074°15'0 0.0
2017-May-18 08:28N 40°33' W 074°15'0 0.0
2017-May-18 07:50N 40°33' W 074°15'0 0.0
2017-May-18 07:21N 40°33' W 074°15'0 0.0
2017-May-18 04:56N 40°33' W 074°15'0 0.0
2017-May-17 23:28N 40°33' W 074°15'0 0.0
2017-May-17 22:59N 40°33' W 074°15'0 0.0
2017-May-17 22:30N 40°33' W 074°15'0 0.0
2017-May-17 21:56N 40°33' W 074°15'0 0.0
2017-May-17 20:49N 40°33' W 074°15'4 2.0
2017-May-17 18:38N 40°30' W 074°10'1 5.2
2017-May-17 18:30N 40°30' W 074°09'4 6.3
2017-May-17 17:52N 40°29' W 074°04'2 4.5
2017-May-17 17:30N 40°30' W 074°03'4 7.3
2017-May-17 17:00N 40°34' W 074°02'2 4.1
2017-May-17 16:26N 40°36' W 074°02'0 0.0
2017-May-17 15:59N 40°36' W 074°02'0 0.1
2017-May-17 15:29N 40°36' W 074°02'0 0.1
2017-May-17 14:59N 40°36' W 074°01'0 0.0
2017-May-17 14:29N 40°36' W 074°01'0 0.0
2017-May-17 13:29N 40°36' W 074°02'0 0.1
2017-May-17 12:59N 40°36' W 074°01'0 0.0
2017-May-17 12:23N 40°36' W 074°01'0 0.0
2017-May-17 11:59N 40°36' W 074°01'0 0.0
2017-May-17 11:29N 40°36' W 074°01'0 0.1
2017-May-17 10:59N 40°36' W 074°01'0 0.1
2017-May-17 10:29N 40°36' W 074°01'0 0.1
2017-May-17 09:59N 40°36' W 074°01'0 0.1
2017-May-17 09:29N 40°36' W 074°01'0 0.0
2017-May-17 08:59N 40°36' W 074°01'0 0.0
2017-May-17 08:29N 40°36' W 074°01'0 0.0
2017-May-17 07:59N 40°36' W 074°01'0 0.2
2017-May-17 07:29N 40°36' W 074°01'0 0.3
2017-May-17 06:56N 40°36' W 074°02'0 0.0
2017-May-17 06:29N 40°36' W 074°02'0 0.0
2017-May-17 05:59N 40°36' W 074°02'0 0.0
2017-May-17 05:29N 40°36' W 074°02'0 0.1
2017-May-17 04:59N 40°36' W 074°02'0 0.1
2017-May-17 04:29N 40°36' W 074°02'0 0.0
2017-May-17 03:59N 40°36' W 074°02'0 0.0
2017-May-17 03:29N 40°36' W 074°02'0 0.1
2017-May-17 02:59N 40°36' W 074°02'0 0.0
2017-May-17 02:29N 40°36' W 074°02'0 0.1
2017-May-17 01:59N 40°36' W 074°02'0 0.1
2017-May-17 01:29N 40°36' W 074°02'0 0.0
2017-May-17 00:59N 40°36' W 074°02'0 0.1
2017-May-17 00:26N 40°36' W 074°02'0 0.1
2017-May-16 23:59N 40°36' W 074°01'0 0.0
2017-May-16 23:29N 40°36' W 074°01'0 0.0
2017-May-16 22:59N 40°36' W 074°01'0 0.1
2017-May-16 22:22N 40°36' W 074°01'0 0.1
2017-May-16 21:55N 40°36' W 074°01'0 0.0
2017-May-16 21:28N 40°36' W 074°01'0 0.1
2017-May-16 20:58N 40°36' W 074°01'0 0.1
2017-May-16 20:28N 40°36' W 074°01'0 0.0
2017-May-16 19:58N 40°36' W 074°01'0 0.1
2017-May-16 19:28N 40°36' W 074°01'0 0.1
2017-May-16 18:58N 40°36' W 074°01'0 0.2
2017-May-16 18:25N 40°36' W 074°01'0 0.1
2017-May-16 17:46N 40°36' W 074°01'0 0.2
2017-May-16 17:25N 40°36' W 074°01'0 0.3
2017-May-16 16:58N 40°36' W 074°01'0 0.1
2017-May-16 16:28N 40°36' W 074°01'0 0.0
2017-May-16 15:58N 40°36' W 074°01'0 0.0
2017-May-16 15:28N 40°36' W 074°01'0 0.0
2017-May-16 14:58N 40°36' W 074°01'0 0.4
2017-May-16 14:00N 40°36' W 074°02'4 8.1
2017-May-16 13:30N 40°32' W 074°01'612.0
2017-May-16 13:00N 40°29' W 073°54'3511.1
2017-May-16 09:52N 39°54' W 073°57'410.8
2017-May-16 09:29N 39°50' W 073°57'510.9
2017-May-16 08:59N 39°44' W 073°58'611.2
2017-May-16 08:29N 39°39' W 074°01'611.4
2017-May-16 08:00N 39°34' W 074°04'611.2
2017-May-16 07:30N 39°29' W 074°07'611.1
2017-May-16 06:58N 39°24' W 074°10'26110.7
2017-May-15 06:38N 35°08' W 075°16'411.6
2017-May-15 06:15N 35°05' W 075°20'  

Dump ship's entire track history